Main page
METAR-TAF:

Airports :

Liège, Belgium

Liège Airport

latitude: 50-39N, longitude: 005-27E, elevation: 186 m

Current weather observation

The report was made 31 minutes ago, at 07:50 UTC
Wind 6 kt from the South/Southwest
Temperature 26°C
Humidity 54%
Pressure 1016 hPa
Visibility 10 km or more
no clouds below 1500 m and no cumulonimbus

METAR: EBLG 260750Z 20006KT CAVOK 26/16 Q1016 NOSIG

Time: 10:21 (08:21 UTC)

Forecast

The report was made 2 hours and 51 minutes ago, at 05:30 UTC
Forecast valid from 26 at 06 UTC to 27 at 12 UTC
Wind 4 kt from the South
Visibility 10 km or more
no clouds below 1500 m and no cumulonimbus
Temporary
from 27 at 03 UTC to 27 at 07 UTC
Visibility: 2500 m
Broken clouds at a height of 1000 ft
mist
Probability 30% :
Temporary
from 27 at 04 UTC to 27 at 06 UTC
Visibility: 1200 m
Broken clouds at a height of 400 ft
patches of fog

TAF: EBLG 260530Z 2606/2712 17004KT CAVOK TEMPO 2703/2707 2500 BR BKN010 PROB30 TEMPO 2704/2706 1200 BCFG BKN004

METAR-TAF

Weather observations and forecasts of more than 4000 airports (METAR and TAF reports).

The available stations are represented by yellow and red dots on the map.

Hover mouse over dot to see the name of the station.

Then click to see weather observations and forecasts.

To change the map : click on the green buttons with a black cross to zoom in, on the green button with a dash to zoom out, or on the green arrows for adjacent maps.


METAR-TAF: